sensor_id;sensor_type;location;lat;lon;timestamp;P1;durP1;ratioP1;P2;durP2;ratioP2
73898;SDS011;62234;50.892;12.724;2024-03-02T00:01:34;24.45;;;9.98;;
73898;SDS011;62234;50.892;12.724;2024-03-02T00:04:00;21.70;;;9.80;;
73898;SDS011;62234;50.892;12.724;2024-03-02T00:06:28;21.95;;;9.52;;
73898;SDS011;62234;50.892;12.724;2024-03-02T00:08:57;22.45;;;9.60;;
73898;SDS011;62234;50.892;12.724;2024-03-02T00:11:24;24.67;;;10.70;;
73898;SDS011;62234;50.892;12.724;2024-03-02T00:13:52;26.08;;;9.25;;
73898;SDS011;62234;50.892;12.724;2024-03-02T00:16:18;24.55;;;10.13;;
73898;SDS011;62234;50.892;12.724;2024-03-02T00:18:45;23.10;;;9.98;;
73898;SDS011;62234;50.892;12.724;2024-03-02T00:21:11;20.23;;;9.70;;
73898;SDS011;62234;50.892;12.724;2024-03-02T00:23:38;23.88;;;9.20;;
73898;SDS011;62234;50.892;12.724;2024-03-02T00:26:04;24.08;;;9.98;;
73898;SDS011;62234;50.892;12.724;2024-03-02T00:28:32;28.00;;;9.52;;
73898;SDS011;62234;50.892;12.724;2024-03-02T00:31:11;24.73;;;10.05;;
73898;SDS011;62234;50.892;12.724;2024-03-02T00:33:41;27.27;;;10.10;;
73898;SDS011;62234;50.892;12.724;2024-03-02T00:36:08;24.98;;;9.82;;
73898;SDS011;62234;50.892;12.724;2024-03-02T00:38:34;28.25;;;10.15;;
73898;SDS011;62234;50.892;12.724;2024-03-02T00:41:06;20.40;;;8.95;;
73898;SDS011;62234;50.892;12.724;2024-03-02T00:46:18;26.20;;;9.90;;
73898;SDS011;62234;50.892;12.724;2024-03-02T00:48:51;22.52;;;10.00;;
73898;SDS011;62234;50.892;12.724;2024-03-02T00:51:19;24.70;;;10.70;;
73898;SDS011;62234;50.892;12.724;2024-03-02T00:53:45;25.15;;;10.23;;
73898;SDS011;62234;50.892;12.724;2024-03-02T00:56:11;22.63;;;9.52;;
73898;SDS011;62234;50.892;12.724;2024-03-02T00:58:37;24.10;;;9.23;;
73898;SDS011;62234;50.892;12.724;2024-03-02T01:01:03;25.92;;;10.27;;
73898;SDS011;62234;50.892;12.724;2024-03-02T01:03:30;22.52;;;10.60;;
73898;SDS011;62234;50.892;12.724;2024-03-02T01:05:56;21.30;;;9.60;;
73898;SDS011;62234;50.892;12.724;2024-03-02T01:08:23;26.63;;;9.07;;
73898;SDS011;62234;50.892;12.724;2024-03-02T01:10:49;21.83;;;9.30;;
73898;SDS011;62234;50.892;12.724;2024-03-02T01:13:15;28.98;;;9.55;;
73898;SDS011;62234;50.892;12.724;2024-03-02T01:15:41;21.30;;;9.75;;
73898;SDS011;62234;50.892;12.724;2024-03-02T01:18:07;20.23;;;9.13;;
73898;SDS011;62234;50.892;12.724;2024-03-02T01:20:33;24.63;;;10.10;;
73898;SDS011;62234;50.892;12.724;2024-03-02T01:22:59;29.13;;;10.23;;
73898;SDS011;62234;50.892;12.724;2024-03-02T01:25:25;23.17;;;9.80;;
73898;SDS011;62234;50.892;12.724;2024-03-02T01:27:51;25.80;;;9.55;;
73898;SDS011;62234;50.892;12.724;2024-03-02T01:30:17;21.75;;;9.93;;
73898;SDS011;62234;50.892;12.724;2024-03-02T01:32:43;21.08;;;9.10;;
73898;SDS011;62234;50.892;12.724;2024-03-02T01:35:09;21.13;;;9.05;;
73898;SDS011;62234;50.892;12.724;2024-03-02T01:37:35;20.85;;;9.15;;
73898;SDS011;62234;50.892;12.724;2024-03-02T01:40:00;22.65;;;9.80;;
73898;SDS011;62234;50.892;12.724;2024-03-02T01:42:27;21.63;;;9.20;;
73898;SDS011;62234;50.892;12.724;2024-03-02T01:44:54;22.17;;;8.70;;
73898;SDS011;62234;50.892;12.724;2024-03-02T01:47:20;19.38;;;8.70;;
73898;SDS011;62234;50.892;12.724;2024-03-02T01:49:46;22.23;;;9.55;;
73898;SDS011;62234;50.892;12.724;2024-03-02T01:52:12;23.55;;;9.50;;
73898;SDS011;62234;50.892;12.724;2024-03-02T01:54:38;22.77;;;10.32;;
73898;SDS011;62234;50.892;12.724;2024-03-02T01:57:04;19.85;;;8.73;;
73898;SDS011;62234;50.892;12.724;2024-03-02T01:59:30;27.33;;;10.43;;
73898;SDS011;62234;50.892;12.724;2024-03-02T02:01:55;27.80;;;10.20;;
73898;SDS011;62234;50.892;12.724;2024-03-02T02:04:21;22.30;;;10.73;;
73898;SDS011;62234;50.892;12.724;2024-03-02T02:06:52;24.92;;;10.30;;
73898;SDS011;62234;50.892;12.724;2024-03-02T02:09:18;18.33;;;9.30;;
73898;SDS011;62234;50.892;12.724;2024-03-02T02:11:43;22.38;;;9.68;;
73898;SDS011;62234;50.892;12.724;2024-03-02T02:14:09;28.20;;;11.73;;
73898;SDS011;62234;50.892;12.724;2024-03-02T02:16:36;24.92;;;10.00;;
73898;SDS011;62234;50.892;12.724;2024-03-02T02:19:02;22.17;;;10.15;;
73898;SDS011;62234;50.892;12.724;2024-03-02T02:21:28;26.85;;;10.43;;
73898;SDS011;62234;50.892;12.724;2024-03-02T02:23:54;23.90;;;10.55;;
73898;SDS011;62234;50.892;12.724;2024-03-02T02:26:20;26.80;;;11.48;;
73898;SDS011;62234;50.892;12.724;2024-03-02T02:28:46;24.52;;;10.35;;
73898;SDS011;62234;50.892;12.724;2024-03-02T02:31:12;25.00;;;11.55;;
73898;SDS011;62234;50.892;12.724;2024-03-02T02:33:42;23.25;;;9.10;;
73898;SDS011;62234;50.892;12.724;2024-03-02T02:36:08;21.05;;;9.23;;
73898;SDS011;62234;50.892;12.724;2024-03-02T02:38:38;22.85;;;9.63;;
73898;SDS011;62234;50.892;12.724;2024-03-02T02:41:04;23.73;;;10.13;;
73898;SDS011;62234;50.892;12.724;2024-03-02T02:43:30;25.40;;;10.43;;
73898;SDS011;62234;50.892;12.724;2024-03-02T02:45:56;23.80;;;10.20;;
73898;SDS011;62234;50.892;12.724;2024-03-02T02:48:22;22.00;;;9.48;;
73898;SDS011;62234;50.892;12.724;2024-03-02T02:50:48;22.23;;;9.88;;
73898;SDS011;62234;50.892;12.724;2024-03-02T02:53:14;21.10;;;9.80;;
73898;SDS011;62234;50.892;12.724;2024-03-02T02:55:40;22.42;;;10.20;;
73898;SDS011;62234;50.892;12.724;2024-03-02T02:58:06;20.77;;;9.70;;
73898;SDS011;62234;50.892;12.724;2024-03-02T03:00:32;24.92;;;10.20;;
73898;SDS011;62234;50.892;12.724;2024-03-02T03:02:58;24.55;;;10.65;;
73898;SDS011;62234;50.892;12.724;2024-03-02T03:05:24;23.73;;;11.02;;
73898;SDS011;62234;50.892;12.724;2024-03-02T03:07:50;25.67;;;10.40;;
73898;SDS011;62234;50.892;12.724;2024-03-02T03:10:16;22.67;;;10.50;;
73898;SDS011;62234;50.892;12.724;2024-03-02T03:12:42;22.83;;;10.20;;
73898;SDS011;62234;50.892;12.724;2024-03-02T03:15:09;24.90;;;11.20;;
73898;SDS011;62234;50.892;12.724;2024-03-02T03:17:35;22.98;;;10.23;;
73898;SDS011;62234;50.892;12.724;2024-03-02T03:20:02;19.45;;;9.93;;
73898;SDS011;62234;50.892;12.724;2024-03-02T03:22:29;23.02;;;10.05;;
73898;SDS011;62234;50.892;12.724;2024-03-02T03:24:56;27.48;;;10.55;;
73898;SDS011;62234;50.892;12.724;2024-03-02T03:27:22;21.20;;;10.10;;
73898;SDS011;62234;50.892;12.724;2024-03-02T03:29:48;24.88;;;11.00;;
73898;SDS011;62234;50.892;12.724;2024-03-02T03:32:14;23.52;;;9.90;;
73898;SDS011;62234;50.892;12.724;2024-03-02T03:34:41;24.63;;;10.18;;
73898;SDS011;62234;50.892;12.724;2024-03-02T03:37:07;27.27;;;9.93;;
73898;SDS011;62234;50.892;12.724;2024-03-02T03:39:33;24.73;;;10.35;;
73898;SDS011;62234;50.892;12.724;2024-03-02T03:42:01;27.30;;;10.65;;
73898;SDS011;62234;50.892;12.724;2024-03-02T03:44:26;25.85;;;11.10;;
73898;SDS011;62234;50.892;12.724;2024-03-02T03:46:52;23.05;;;10.50;;
73898;SDS011;62234;50.892;12.724;2024-03-02T03:49:18;24.98;;;10.68;;
73898;SDS011;62234;50.892;12.724;2024-03-02T03:51:44;26.08;;;10.27;;
73898;SDS011;62234;50.892;12.724;2024-03-02T03:54:10;23.13;;;10.65;;
73898;SDS011;62234;50.892;12.724;2024-03-02T03:56:36;23.48;;;10.77;;
73898;SDS011;62234;50.892;12.724;2024-03-02T03:59:02;23.38;;;9.40;;
73898;SDS011;62234;50.892;12.724;2024-03-02T04:01:29;23.70;;;9.15;;
73898;SDS011;62234;50.892;12.724;2024-03-02T04:03:56;21.83;;;10.10;;
73898;SDS011;62234;50.892;12.724;2024-03-02T04:06:22;24.63;;;10.32;;
73898;SDS011;62234;50.892;12.724;2024-03-02T04:08:48;22.20;;;10.02;;
73898;SDS011;62234;50.892;12.724;2024-03-02T04:11:14;25.33;;;9.73;;
73898;SDS011;62234;50.892;12.724;2024-03-02T04:13:40;18.40;;;8.68;;
73898;SDS011;62234;50.892;12.724;2024-03-02T04:16:06;21.17;;;9.35;;
73898;SDS011;62234;50.892;12.724;2024-03-02T04:18:32;22.92;;;9.25;;
73898;SDS011;62234;50.892;12.724;2024-03-02T04:20:58;25.05;;;10.77;;
73898;SDS011;62234;50.892;12.724;2024-03-02T04:23:24;22.35;;;9.25;;
73898;SDS011;62234;50.892;12.724;2024-03-02T04:25:50;20.55;;;9.52;;
73898;SDS011;62234;50.892;12.724;2024-03-02T04:28:16;23.38;;;10.10;;
73898;SDS011;62234;50.892;12.724;2024-03-02T04:30:42;22.42;;;10.90;;
73898;SDS011;62234;50.892;12.724;2024-03-02T04:33:08;22.13;;;9.15;;
73898;SDS011;62234;50.892;12.724;2024-03-02T04:35:35;17.05;;;9.07;;
73898;SDS011;62234;50.892;12.724;2024-03-02T04:38:01;24.38;;;10.10;;
73898;SDS011;62234;50.892;12.724;2024-03-02T04:40:27;23.02;;;9.18;;
73898;SDS011;62234;50.892;12.724;2024-03-02T04:42:53;18.05;;;8.85;;
73898;SDS011;62234;50.892;12.724;2024-03-02T04:45:19;19.73;;;8.90;;
73898;SDS011;62234;50.892;12.724;2024-03-02T04:47:45;22.33;;;10.60;;
73898;SDS011;62234;50.892;12.724;2024-03-02T04:50:11;21.70;;;10.10;;
73898;SDS011;62234;50.892;12.724;2024-03-02T04:52:36;23.17;;;10.00;;
73898;SDS011;62234;50.892;12.724;2024-03-02T04:55:03;19.63;;;9.85;;
73898;SDS011;62234;50.892;12.724;2024-03-02T04:57:42;27.10;;;10.13;;
73898;SDS011;62234;50.892;12.724;2024-03-02T05:00:08;19.48;;;9.50;;
73898;SDS011;62234;50.892;12.724;2024-03-02T05:02:34;23.73;;;9.90;;
73898;SDS011;62234;50.892;12.724;2024-03-02T05:05:00;18.65;;;9.40;;
73898;SDS011;62234;50.892;12.724;2024-03-02T05:07:27;18.80;;;9.77;;
73898;SDS011;62234;50.892;12.724;2024-03-02T05:09:53;20.55;;;9.73;;
73898;SDS011;62234;50.892;12.724;2024-03-02T05:12:19;20.92;;;9.75;;
73898;SDS011;62234;50.892;12.724;2024-03-02T05:14:57;24.05;;;8.77;;
73898;SDS011;62234;50.892;12.724;2024-03-02T05:17:23;21.38;;;8.27;;
73898;SDS011;62234;50.892;12.724;2024-03-02T05:19:48;19.15;;;8.57;;
73898;SDS011;62234;50.892;12.724;2024-03-02T05:22:14;23.58;;;10.05;;
73898;SDS011;62234;50.892;12.724;2024-03-02T05:24:41;21.75;;;8.93;;
73898;SDS011;62234;50.892;12.724;2024-03-02T05:27:07;17.70;;;9.07;;
73898;SDS011;62234;50.892;12.724;2024-03-02T05:29:33;23.50;;;9.18;;
73898;SDS011;62234;50.892;12.724;2024-03-02T05:31:59;25.42;;;9.98;;
73898;SDS011;62234;50.892;12.724;2024-03-02T05:34:25;26.25;;;10.25;;
73898;SDS011;62234;50.892;12.724;2024-03-02T05:36:51;20.52;;;9.32;;
73898;SDS011;62234;50.892;12.724;2024-03-02T05:39:17;27.33;;;11.63;;
73898;SDS011;62234;50.892;12.724;2024-03-02T05:41:43;21.50;;;9.77;;
73898;SDS011;62234;50.892;12.724;2024-03-02T05:44:09;26.50;;;10.00;;
73898;SDS011;62234;50.892;12.724;2024-03-02T05:46:34;25.15;;;9.32;;
73898;SDS011;62234;50.892;12.724;2024-03-02T05:49:00;22.90;;;11.60;;
73898;SDS011;62234;50.892;12.724;2024-03-02T05:51:26;22.95;;;9.40;;
73898;SDS011;62234;50.892;12.724;2024-03-02T05:53:52;30.05;;;10.13;;
73898;SDS011;62234;50.892;12.724;2024-03-02T05:56:18;22.20;;;10.70;;
73898;SDS011;62234;50.892;12.724;2024-03-02T05:58:44;25.88;;;9.95;;
73898;SDS011;62234;50.892;12.724;2024-03-02T06:01:25;25.70;;;10.93;;
73898;SDS011;62234;50.892;12.724;2024-03-02T06:03:56;22.45;;;9.93;;
73898;SDS011;62234;50.892;12.724;2024-03-02T06:06:25;23.38;;;9.88;;
73898;SDS011;62234;50.892;12.724;2024-03-02T06:08:51;26.80;;;10.30;;
73898;SDS011;62234;50.892;12.724;2024-03-02T06:11:18;23.23;;;9.75;;
73898;SDS011;62234;50.892;12.724;2024-03-02T06:13:44;22.55;;;9.30;;
73898;SDS011;62234;50.892;12.724;2024-03-02T06:16:11;23.30;;;9.73;;
73898;SDS011;62234;50.892;12.724;2024-03-02T06:18:37;23.50;;;9.23;;
73898;SDS011;62234;50.892;12.724;2024-03-02T06:21:03;26.58;;;9.70;;
73898;SDS011;62234;50.892;12.724;2024-03-02T06:23:29;22.88;;;8.80;;
73898;SDS011;62234;50.892;12.724;2024-03-02T06:25:55;22.15;;;9.15;;
73898;SDS011;62234;50.892;12.724;2024-03-02T06:28:21;25.67;;;9.50;;
73898;SDS011;62234;50.892;12.724;2024-03-02T06:30:47;22.45;;;9.63;;
73898;SDS011;62234;50.892;12.724;2024-03-02T06:33:12;20.77;;;8.93;;
73898;SDS011;62234;50.892;12.724;2024-03-02T06:35:38;22.08;;;8.77;;
73898;SDS011;62234;50.892;12.724;2024-03-02T06:38:04;17.63;;;8.05;;
73898;SDS011;62234;50.892;12.724;2024-03-02T06:40:30;17.42;;;8.77;;
73898;SDS011;62234;50.892;12.724;2024-03-02T06:42:56;25.35;;;9.15;;
73898;SDS011;62234;50.892;12.724;2024-03-02T06:45:22;20.02;;;9.23;;
73898;SDS011;62234;50.892;12.724;2024-03-02T06:47:49;22.35;;;9.50;;
73898;SDS011;62234;50.892;12.724;2024-03-02T06:50:14;26.83;;;9.30;;
73898;SDS011;62234;50.892;12.724;2024-03-02T06:52:40;22.77;;;9.10;;
73898;SDS011;62234;50.892;12.724;2024-03-02T06:55:07;21.40;;;8.07;;
73898;SDS011;62234;50.892;12.724;2024-03-02T06:57:33;21.00;;;9.10;;
73898;SDS011;62234;50.892;12.724;2024-03-02T06:59:59;20.38;;;8.55;;
73898;SDS011;62234;50.892;12.724;2024-03-02T07:02:25;22.58;;;9.27;;
73898;SDS011;62234;50.892;12.724;2024-03-02T07:04:51;20.38;;;8.75;;
73898;SDS011;62234;50.892;12.724;2024-03-02T07:07:17;23.33;;;8.57;;
73898;SDS011;62234;50.892;12.724;2024-03-02T07:09:43;18.88;;;9.35;;
73898;SDS011;62234;50.892;12.724;2024-03-02T07:12:09;23.55;;;9.75;;
73898;SDS011;62234;50.892;12.724;2024-03-02T07:14:35;21.08;;;8.38;;
73898;SDS011;62234;50.892;12.724;2024-03-02T07:17:20;21.02;;;10.38;;
73898;SDS011;62234;50.892;12.724;2024-03-02T07:19:45;25.92;;;14.20;;
73898;SDS011;62234;50.892;12.724;2024-03-02T07:22:12;25.48;;;14.95;;
73898;SDS011;62234;50.892;12.724;2024-03-02T07:24:41;31.70;;;15.98;;
73898;SDS011;62234;50.892;12.724;2024-03-02T07:27:10;19.88;;;10.25;;
73898;SDS011;62234;50.892;12.724;2024-03-02T07:29:37;27.38;;;14.45;;
73898;SDS011;62234;50.892;12.724;2024-03-02T07:32:03;21.05;;;10.15;;
73898;SDS011;62234;50.892;12.724;2024-03-02T07:34:29;17.55;;;9.85;;
73898;SDS011;62234;50.892;12.724;2024-03-02T07:36:55;22.08;;;9.90;;
73898;SDS011;62234;50.892;12.724;2024-03-02T07:39:21;17.42;;;9.32;;
73898;SDS011;62234;50.892;12.724;2024-03-02T07:41:47;15.23;;;8.13;;
73898;SDS011;62234;50.892;12.724;2024-03-02T07:44:13;25.00;;;9.85;;
73898;SDS011;62234;50.892;12.724;2024-03-02T07:46:43;17.80;;;8.05;;
73898;SDS011;62234;50.892;12.724;2024-03-02T07:49:09;15.63;;;7.72;;
73898;SDS011;62234;50.892;12.724;2024-03-02T07:51:35;15.77;;;7.30;;
73898;SDS011;62234;50.892;12.724;2024-03-02T07:54:01;15.63;;;7.35;;
73898;SDS011;62234;50.892;12.724;2024-03-02T07:56:27;18.75;;;7.70;;
73898;SDS011;62234;50.892;12.724;2024-03-02T07:58:53;16.88;;;8.13;;
73898;SDS011;62234;50.892;12.724;2024-03-02T08:01:19;15.93;;;7.55;;
73898;SDS011;62234;50.892;12.724;2024-03-02T08:03:45;22.08;;;8.70;;
73898;SDS011;62234;50.892;12.724;2024-03-02T08:06:13;31.85;;;14.75;;
73898;SDS011;62234;50.892;12.724;2024-03-02T08:08:40;16.13;;;7.95;;
73898;SDS011;62234;50.892;12.724;2024-03-02T08:11:06;14.75;;;7.75;;
73898;SDS011;62234;50.892;12.724;2024-03-02T08:13:32;15.52;;;7.95;;
73898;SDS011;62234;50.892;12.724;2024-03-02T08:15:58;19.45;;;8.75;;
73898;SDS011;62234;50.892;12.724;2024-03-02T08:18:24;14.55;;;8.68;;
73898;SDS011;62234;50.892;12.724;2024-03-02T08:20:50;15.23;;;7.22;;
73898;SDS011;62234;50.892;12.724;2024-03-02T08:23:16;15.00;;;6.25;;
73898;SDS011;62234;50.892;12.724;2024-03-02T08:25:42;15.63;;;7.15;;
73898;SDS011;62234;50.892;12.724;2024-03-02T08:28:08;13.23;;;7.32;;
73898;SDS011;62234;50.892;12.724;2024-03-02T08:30:34;15.85;;;7.60;;
73898;SDS011;62234;50.892;12.724;2024-03-02T08:33:00;16.13;;;6.60;;
73898;SDS011;62234;50.892;12.724;2024-03-02T08:35:26;14.35;;;7.40;;
73898;SDS011;62234;50.892;12.724;2024-03-02T08:37:53;14.20;;;7.10;;
73898;SDS011;62234;50.892;12.724;2024-03-02T08:40:18;14.32;;;7.05;;
73898;SDS011;62234;50.892;12.724;2024-03-02T08:42:44;14.63;;;6.60;;
73898;SDS011;62234;50.892;12.724;2024-03-02T08:45:11;14.00;;;6.65;;
73898;SDS011;62234;50.892;12.724;2024-03-02T08:47:37;12.82;;;6.90;;
73898;SDS011;62234;50.892;12.724;2024-03-02T08:50:03;14.25;;;6.72;;
73898;SDS011;62234;50.892;12.724;2024-03-02T08:52:30;12.25;;;6.55;;
73898;SDS011;62234;50.892;12.724;2024-03-02T08:54:56;16.45;;;7.30;;
73898;SDS011;62234;50.892;12.724;2024-03-02T08:57:21;13.20;;;6.30;;
73898;SDS011;62234;50.892;12.724;2024-03-02T08:59:47;15.40;;;7.22;;
73898;SDS011;62234;50.892;12.724;2024-03-02T09:02:14;14.07;;;7.22;;
73898;SDS011;62234;50.892;12.724;2024-03-02T09:04:40;11.68;;;5.68;;
73898;SDS011;62234;50.892;12.724;2024-03-02T09:07:06;13.52;;;6.40;;
73898;SDS011;62234;50.892;12.724;2024-03-02T09:09:32;18.77;;;6.47;;
73898;SDS011;62234;50.892;12.724;2024-03-02T09:11:58;14.23;;;6.55;;
73898;SDS011;62234;50.892;12.724;2024-03-02T09:14:24;17.55;;;8.98;;
73898;SDS011;62234;50.892;12.724;2024-03-02T09:16:50;13.85;;;6.78;;
73898;SDS011;62234;50.892;12.724;2024-03-02T09:19:16;15.80;;;7.03;;
73898;SDS011;62234;50.892;12.724;2024-03-02T09:21:42;13.10;;;6.97;;
73898;SDS011;62234;50.892;12.724;2024-03-02T09:24:09;12.90;;;6.18;;
73898;SDS011;62234;50.892;12.724;2024-03-02T09:26:35;15.45;;;7.05;;
73898;SDS011;62234;50.892;12.724;2024-03-02T09:29:01;14.20;;;7.03;;
73898;SDS011;62234;50.892;12.724;2024-03-02T09:31:27;13.80;;;6.95;;
73898;SDS011;62234;50.892;12.724;2024-03-02T09:33:53;14.98;;;7.63;;
73898;SDS011;62234;50.892;12.724;2024-03-02T09:36:22;14.93;;;7.65;;
73898;SDS011;62234;50.892;12.724;2024-03-02T09:38:48;15.82;;;7.28;;
73898;SDS011;62234;50.892;12.724;2024-03-02T09:41:14;17.20;;;8.35;;
73898;SDS011;62234;50.892;12.724;2024-03-02T09:43:40;15.25;;;6.25;;
73898;SDS011;62234;50.892;12.724;2024-03-02T09:46:09;13.43;;;6.60;;
73898;SDS011;62234;50.892;12.724;2024-03-02T09:48:35;16.52;;;6.88;;
73898;SDS011;62234;50.892;12.724;2024-03-02T09:51:01;15.73;;;6.82;;
73898;SDS011;62234;50.892;12.724;2024-03-02T09:53:32;12.15;;;6.88;;
73898;SDS011;62234;50.892;12.724;2024-03-02T09:55:59;12.57;;;6.70;;
73898;SDS011;62234;50.892;12.724;2024-03-02T09:58:25;15.55;;;6.00;;
73898;SDS011;62234;50.892;12.724;2024-03-02T10:00:51;12.27;;;6.75;;
73898;SDS011;62234;50.892;12.724;2024-03-02T10:03:18;14.55;;;7.28;;
73898;SDS011;62234;50.892;12.724;2024-03-02T10:05:44;15.10;;;6.07;;
73898;SDS011;62234;50.892;12.724;2024-03-02T10:08:10;13.70;;;6.82;;
73898;SDS011;62234;50.892;12.724;2024-03-02T10:10:37;12.13;;;5.90;;
73898;SDS011;62234;50.892;12.724;2024-03-02T10:13:05;15.02;;;7.22;;
73898;SDS011;62234;50.892;12.724;2024-03-02T10:15:31;10.63;;;6.05;;
73898;SDS011;62234;50.892;12.724;2024-03-02T10:17:57;13.60;;;7.18;;
73898;SDS011;62234;50.892;12.724;2024-03-02T10:20:23;11.52;;;5.53;;
73898;SDS011;62234;50.892;12.724;2024-03-02T10:22:50;12.18;;;5.78;;
73898;SDS011;62234;50.892;12.724;2024-03-02T10:25:28;11.27;;;6.63;;
73898;SDS011;62234;50.892;12.724;2024-03-02T10:27:56;9.57;;;4.57;;
73898;SDS011;62234;50.892;12.724;2024-03-02T10:30:22;6.05;;;3.22;;
73898;SDS011;62234;50.892;12.724;2024-03-02T10:32:49;7.88;;;3.53;;
73898;SDS011;62234;50.892;12.724;2024-03-02T10:35:16;6.03;;;3.65;;
73898;SDS011;62234;50.892;12.724;2024-03-02T10:37:42;8.93;;;4.00;;
73898;SDS011;62234;50.892;12.724;2024-03-02T10:40:09;8.35;;;4.32;;
73898;SDS011;62234;50.892;12.724;2024-03-02T10:42:37;5.35;;;3.80;;
73898;SDS011;62234;50.892;12.724;2024-03-02T10:45:04;7.85;;;3.75;;
73898;SDS011;62234;50.892;12.724;2024-03-02T10:47:30;6.25;;;3.88;;
73898;SDS011;62234;50.892;12.724;2024-03-02T10:49:57;5.43;;;3.45;;
73898;SDS011;62234;50.892;12.724;2024-03-02T10:52:24;10.40;;;3.95;;
73898;SDS011;62234;50.892;12.724;2024-03-02T10:54:50;6.00;;;3.30;;
73898;SDS011;62234;50.892;12.724;2024-03-02T10:57:16;5.88;;;3.60;;
73898;SDS011;62234;50.892;12.724;2024-03-02T10:59:48;7.70;;;4.47;;
73898;SDS011;62234;50.892;12.724;2024-03-02T11:02:17;6.30;;;4.30;;
73898;SDS011;62234;50.892;12.724;2024-03-02T11:04:43;6.55;;;4.15;;
73898;SDS011;62234;50.892;12.724;2024-03-02T11:07:10;7.57;;;3.53;;
73898;SDS011;62234;50.892;12.724;2024-03-02T11:09:38;5.78;;;3.35;;
73898;SDS011;62234;50.892;12.724;2024-03-02T11:12:06;4.47;;;2.78;;
73898;SDS011;62234;50.892;12.724;2024-03-02T11:14:36;5.97;;;2.85;;
73898;SDS011;62234;50.892;12.724;2024-03-02T11:17:03;4.97;;;2.80;;
73898;SDS011;62234;50.892;12.724;2024-03-02T11:19:30;5.25;;;3.13;;
73898;SDS011;62234;50.892;12.724;2024-03-02T11:21:57;3.85;;;2.17;;
73898;SDS011;62234;50.892;12.724;2024-03-02T11:26:49;2.70;;;1.65;;
73898;SDS011;62234;50.892;12.724;2024-03-02T11:32:22;2.65;;;1.50;;
73898;SDS011;62234;50.892;12.724;2024-03-02T11:34:49;4.25;;;3.25;;
73898;SDS011;62234;50.892;12.724;2024-03-02T11:37:16;3.13;;;2.40;;
73898;SDS011;62234;50.892;12.724;2024-03-02T11:39:46;5.22;;;2.58;;
73898;SDS011;62234;50.892;12.724;2024-03-02T11:42:12;2.60;;;1.92;;
73898;SDS011;62234;50.892;12.724;2024-03-02T11:44:42;2.63;;;1.70;;
73898;SDS011;62234;50.892;12.724;2024-03-02T11:47:10;10.15;;;2.63;;
73898;SDS011;62234;50.892;12.724;2024-03-02T11:52:05;2.10;;;1.60;;
73898;SDS011;62234;50.892;12.724;2024-03-02T11:54:35;3.83;;;2.50;;
73898;SDS011;62234;50.892;12.724;2024-03-02T11:57:04;5.50;;;2.75;;
73898;SDS011;62234;50.892;12.724;2024-03-02T11:59:30;3.88;;;3.00;;
73898;SDS011;62234;50.892;12.724;2024-03-02T12:01:56;4.25;;;2.75;;
73898;SDS011;62234;50.892;12.724;2024-03-02T12:04:23;5.07;;;3.63;;
73898;SDS011;62234;50.892;12.724;2024-03-02T12:06:56;4.40;;;3.42;;
73898;SDS011;62234;50.892;12.724;2024-03-02T12:09:24;5.50;;;3.13;;
73898;SDS011;62234;50.892;12.724;2024-03-02T12:12:00;5.43;;;3.22;;
73898;SDS011;62234;50.892;12.724;2024-03-02T12:14:27;6.43;;;3.20;;
73898;SDS011;62234;50.892;12.724;2024-03-02T12:16:53;6.30;;;3.33;;
73898;SDS011;62234;50.892;12.724;2024-03-02T12:19:20;7.32;;;4.63;;
73898;SDS011;62234;50.892;12.724;2024-03-02T12:21:46;6.32;;;2.97;;
73898;SDS011;62234;50.892;12.724;2024-03-02T12:24:12;3.42;;;2.67;;
73898;SDS011;62234;50.892;12.724;2024-03-02T12:26:38;5.53;;;3.47;;
73898;SDS011;62234;50.892;12.724;2024-03-02T12:29:05;3.80;;;2.40;;
73898;SDS011;62234;50.892;12.724;2024-03-02T12:31:31;5.53;;;2.92;;
73898;SDS011;62234;50.892;12.724;2024-03-02T12:33:57;3.85;;;2.42;;
73898;SDS011;62234;50.892;12.724;2024-03-02T12:36:24;4.32;;;2.22;;
73898;SDS011;62234;50.892;12.724;2024-03-02T12:38:52;19.35;;;8.27;;
73898;SDS011;62234;50.892;12.724;2024-03-02T12:41:19;4.00;;;2.08;;
73898;SDS011;62234;50.892;12.724;2024-03-02T12:43:45;2.85;;;1.67;;
73898;SDS011;62234;50.892;12.724;2024-03-02T12:46:11;3.53;;;1.73;;
73898;SDS011;62234;50.892;12.724;2024-03-02T12:48:37;3.88;;;2.70;;
73898;SDS011;62234;50.892;12.724;2024-03-02T12:51:05;3.40;;;2.38;;
73898;SDS011;62234;50.892;12.724;2024-03-02T12:53:31;4.18;;;2.05;;
73898;SDS011;62234;50.892;12.724;2024-03-02T12:55:57;3.85;;;2.10;;
73898;SDS011;62234;50.892;12.724;2024-03-02T12:58:24;5.03;;;2.42;;
73898;SDS011;62234;50.892;12.724;2024-03-02T13:01:04;3.35;;;2.50;;
73898;SDS011;62234;50.892;12.724;2024-03-02T13:03:30;4.05;;;2.47;;
73898;SDS011;62234;50.892;12.724;2024-03-02T13:05:56;4.72;;;2.70;;
73898;SDS011;62234;50.892;12.724;2024-03-02T13:08:23;5.78;;;2.25;;
73898;SDS011;62234;50.892;12.724;2024-03-02T13:10:49;4.18;;;2.35;;
73898;SDS011;62234;50.892;12.724;2024-03-02T13:13:15;5.28;;;2.63;;
73898;SDS011;62234;50.892;12.724;2024-03-02T13:15:41;5.53;;;2.53;;
73898;SDS011;62234;50.892;12.724;2024-03-02T13:18:07;3.25;;;2.50;;
73898;SDS011;62234;50.892;12.724;2024-03-02T13:20:34;4.65;;;2.67;;
73898;SDS011;62234;50.892;12.724;2024-03-02T13:23:01;4.53;;;2.30;;
73898;SDS011;62234;50.892;12.724;2024-03-02T13:25:26;4.13;;;2.28;;
73898;SDS011;62234;50.892;12.724;2024-03-02T13:27:52;5.30;;;2.65;;
73898;SDS011;62234;50.892;12.724;2024-03-02T13:30:18;5.95;;;2.78;;
73898;SDS011;62234;50.892;12.724;2024-03-02T13:32:44;7.25;;;2.90;;
73898;SDS011;62234;50.892;12.724;2024-03-02T13:35:10;4.55;;;2.63;;
73898;SDS011;62234;50.892;12.724;2024-03-02T13:37:36;4.63;;;2.63;;
73898;SDS011;62234;50.892;12.724;2024-03-02T13:40:02;5.97;;;2.85;;
73898;SDS011;62234;50.892;12.724;2024-03-02T13:42:29;11.65;;;2.97;;
73898;SDS011;62234;50.892;12.724;2024-03-02T13:44:55;4.15;;;2.30;;
73898;SDS011;62234;50.892;12.724;2024-03-02T13:47:21;4.85;;;2.42;;
73898;SDS011;62234;50.892;12.724;2024-03-02T13:49:47;3.63;;;2.45;;
73898;SDS011;62234;50.892;12.724;2024-03-02T13:52:14;6.13;;;3.05;;
73898;SDS011;62234;50.892;12.724;2024-03-02T13:54:41;7.05;;;2.90;;
73898;SDS011;62234;50.892;12.724;2024-03-02T13:57:08;4.47;;;3.13;;
73898;SDS011;62234;50.892;12.724;2024-03-02T13:59:34;5.50;;;2.88;;
73898;SDS011;62234;50.892;12.724;2024-03-02T14:02:01;5.20;;;2.95;;
73898;SDS011;62234;50.892;12.724;2024-03-02T14:04:29;4.70;;;2.53;;
73898;SDS011;62234;50.892;12.724;2024-03-02T14:06:55;5.65;;;2.65;;
73898;SDS011;62234;50.892;12.724;2024-03-02T14:09:21;6.55;;;3.30;;
73898;SDS011;62234;50.892;12.724;2024-03-02T14:11:49;4.82;;;2.92;;
73898;SDS011;62234;50.892;12.724;2024-03-02T14:14:15;7.43;;;3.65;;
73898;SDS011;62234;50.892;12.724;2024-03-02T14:16:41;7.43;;;3.40;;
73898;SDS011;62234;50.892;12.724;2024-03-02T14:19:07;6.40;;;2.55;;
73898;SDS011;62234;50.892;12.724;2024-03-02T14:21:34;5.43;;;3.65;;
73898;SDS011;62234;50.892;12.724;2024-03-02T14:24:01;8.00;;;4.00;;
73898;SDS011;62234;50.892;12.724;2024-03-02T14:26:27;7.32;;;3.38;;
73898;SDS011;62234;50.892;12.724;2024-03-02T14:28:53;7.13;;;3.45;;